Main page
METAR-TAF:

METAR-TAF

Airports :

Ekofisk, Norway

Oil platform

latitude: 56-33N, longitude: 003-15E, elevation: 3 m

Current weather observation

The report was made 24 minutes ago, at 15:50 UTC
Wind 18 kt from the Southwest
Temperature 7°C
Humidity 87%
Pressure 1004 hPa
Visibility 10 km or more
Few clouds at a height of 500 ft

METAR: ENLE 251550Z 23018KT 9999 FEW005 07/05 Q1004 W07/S4

Time: 18:14 (16:14 UTC)

Forecast

The report was made 2 hours and 14 minutes ago, at 14:00 UTC
Forecast valid from 25 at 15 UTC to 25 at 24 UTC
Wind 18 kt from the West/Southwest
Visibility 10 km or more
Few clouds at a height of 500 ft
Probability 30%
from 25 at 15 UTC to 25 at 18 UTC
Visibility: 3000 m
Broken clouds at a height of 500 ft
mist

TAF: ENLE 251400Z 2515/2524 24018KT 9999 FEW005 PROB30 2515/2518 3000 BR BKN005

Weather observations and forecasts of more than 4000 airports (METAR and TAF reports).

The available stations are represented by yellow and red dots on the map.

Hover mouse over dot to see the name of the station.

Then click to see weather observations and forecasts.

To change the map : click on the green buttons with a black cross to zoom in, on the green button with a dash to zoom out, or on the green arrows for adjacent maps.


METAR-TAF: